Latest Weather Observations for Hamilton

IDV60801

Issued at 9:52 pm EST Sunday 3 July 2022 (issued every 10 minutes, with the page automatically refreshed every 10 minutes)

About weather observations | Map of weather stations | Latest weather observations for VIC | Other Formats
Station Details ID: 090173 Name: HAMILTON AIRPORT Lat: -37.65 Lon: 142.06 Height: 241.1 m
Data from the previous 72 hours. | See also: Recent months at Hamilton
Date/Time
EST
Temp
°C
App
Temp
°C
Dew
Point
°C
Rel
Hum
%
Delta-T
°C
Wind Press
QNH
hPa
Press
MSL
hPa
Rain since
9am
mm
Dir  Spd
km/h
Gust
km/h
Spd
kts
Gust
kts
03/09:30pm 7.4 2.9 4.4 81 1.3 ESE 17 19 9 10 1028.4 1028.8 0.0
03/09:00pm 7.9 2.8 4.3 78 1.6 SE 20 28 11 15 1028.4 1028.8 0.0
03/08:30pm 8.1 3.3 4.7 79 1.5 SE 19 24 10 13 1028.5 1028.9 0.0
03/08:00pm 8.3 3.4 4.1 75 1.8 SE 19 24 10 13 1028.5 1028.9 0.0
03/07:30pm 8.5 3.0 3.8 72 2.1 SE 22 28 12 15 1028.3 1028.7 0.0
03/07:00pm 8.5 2.9 3.6 71 2.1 SE 22 33 12 18 1028.1 1028.6 0.0
03/06:30pm 8.5 3.4 3.9 73 2.0 SE 20 35 11 19 1028.0 1028.5 0.0
03/06:00pm 8.6 2.7 3.8 72 2.1 SE 24 35 13 19 1028.0 1028.5 0.0
03/05:30pm 8.4 2.9 3.8 73 2.0 SE 22 32 12 17 1027.7 1028.2 0.0
03/05:00pm 8.7 2.0 3.7 71 2.2 SE 28 37 15 20 1027.6 1028.1 0.0
03/04:30pm 8.9 3.2 4.9 76 1.8 SSE 24 32 13 17 1027.4 1027.9 0.0
03/04:00pm 9.1 3.7 4.7 74 2.0 SE 22 30 12 16 1027.4 1027.9 0.0
03/03:30pm 9.2 3.1 4.8 74 2.0 SE 26 35 14 19 1027.3 1027.8 0.0
03/03:00pm 9.3 2.8 4.5 72 2.1 SE 28 37 15 20 1027.4 1027.9 0.0
03/02:30pm 9.4 3.0 5.2 75 1.9 SE 28 39 15 21 1027.5 1028.0 0.0
03/02:00pm 9.4 3.3 4.8 73 2.1 SSE 26 35 14 19 1027.8 1028.3 0.0
03/01:30pm 9.7 3.7 5.1 73 2.1 SE 26 33 14 18 1027.9 1028.4 0.0
03/01:00pm 9.7 3.3 5.1 73 2.1 SE 28 37 15 20 1028.3 1028.7 0.0
03/12:30pm 9.7 3.3 5.1 73 2.1 SSE 28 35 15 19 1028.7 1029.1 0.0
03/12:00pm 9.6 3.2 5.0 73 2.1 SE 28 37 15 20 1029.1 1029.6 0.0
03/11:30am 9.5 3.2 5.5 76 1.8 SE 28 35 15 19 1029.4 1029.9 0.0
03/11:00am 9.0 4.0 6.3 83 1.3 SE 22 30 12 16 1029.9 1030.4 0.0
03/10:30am 8.4 3.8 6.5 88 0.9 SE 20 28 11 15 1029.8 1030.3 0.0
03/10:00am 7.9 3.4 6.0 88 0.9 SE 19 28 10 15 1029.8 1030.3 0.0
03/09:30am 7.5 3.0 6.0 90 0.7 SE 19 24 10 13 1029.6 1030.1 0.0
03/09:00am 6.9 3.3 6.8 99 0.0 SE 15 19 8 10 1029.6 1030.1 0.2
03/08:30am 6.5 2.8 6.4 99 0.0 SE 15 19 8 10 1029.3 1029.8 0.2
03/08:00am 6.1 2.7 6.0 99 0.0 ESE 13 19 7 10 1029.2 1029.7 0.2
03/07:30am 6.0 2.6 5.9 99 0.0 SE 13 19 7 10 1029.1 1029.6 0.2
03/07:14am 5.9 2.1 5.8 99 0.0 SE 15 20 8 11 1029.0 1029.5 0.2
03/07:13am 5.8 1.6 5.7 99 0.0 SE 17 20 9 11 1029.1 1029.6 0.2
03/07:00am 5.7 1.9 5.6 99 0.0 SE 15 22 8 12 1029.0 1029.5 0.2
03/06:30am 5.3 1.7 5.2 99 0.0 SE 13 19 7 10 1028.8 1029.2 0.2
03/06:04am 5.3 2.1 5.2 99 0.0 SE 11 13 6 7 1028.4 1028.8 0.0
03/06:00am 5.1 1.9 5.0 99 0.0 SE 11 13 6 7 1028.4 1028.8 0.0
03/05:58am 5.0 1.8 4.9 99 0.0 SE 11 15 6 8 1028.4 1028.8 0.0
03/05:30am 5.9 2.5 5.8 99 0.0 SSE 13 17 7 9 1028.3 1028.7 0.0
03/05:09am 6.1 2.3 6.0 99 0.0 SSE 15 19 8 10 1028.4 1028.8 0.0
03/05:00am 5.9 2.1 5.8 99 0.0 SSE 15 20 8 11 1028.3 1028.7 0.0
03/04:30am 6.2 2.8 6.1 99 0.0 SE 13 19 7 10 1028.4 1028.8 0.0
03/04:25am 6.1 2.7 6.0 99 0.0 SE 13 17 7 9 1028.5 1028.9 0.0
03/04:21am 6.0 2.6 5.9 99 0.0 SE 13 17 7 9 1028.5 1028.9 0.0
03/04:10am 6.0 2.6 5.9 99 0.0 SE 13 19 7 10 1028.5 1028.9 0.0
03/04:00am 6.0 2.6 5.9 99 0.0 SE 13 17 7 9 1028.5 1028.9 0.0
03/03:30am 6.1 3.5 6.0 99 0.0 SSE 9 13 5 7 1028.8 1029.2 0.0
03/03:00am 6.2 3.6 6.1 99 0.0 SE 9 13 5 7 1029.0 1029.5 0.0
03/02:34am 6.4 3.5 6.3 99 0.0 SE 11 17 6 9 1029.1 1029.6 0.0
03/02:30am 6.4 3.5 6.3 99 0.0 SE 11 17 6 9 1029.1 1029.6 0.0
03/02:19am 6.3 3.3 6.2 99 0.0 SE 11 15 6 8 1029.1 1029.6 0.0
03/02:00am 6.3 3.0 6.2 99 0.0 SSE 13 17 7 9 1029.2 1029.7 0.0
03/01:39am 6.6 3.3 6.5 99 0.0 SSE 13 17 7 9 1029.1 1029.6 0.0
03/01:30am 6.7 3.1 6.6 99 0.0 SSE 15 19 8 10 1029.1 1029.6 0.0
03/01:00am 6.7 3.4 6.6 99 0.0 SSE 13 17 7 9 1029.4 1029.9 0.0
03/12:55am 6.7 3.4 6.6 99 0.0 SE 13 17 7 9 1029.5 1030.0 0.0
03/12:30am 6.7 3.8 6.6 99 0.0 SE 11 15 6 8 1029.6 1030.1 0.0
03/12:28am 6.7 3.8 6.6 99 0.0 SSE 11 17 6 9 1029.6 1030.1 0.0
03/12:16am 6.7 3.4 6.6 99 0.0 SSE 13 17 7 9 1029.6 1030.1 0.0
03/12:15am 6.7 3.1 6.6 99 0.0 SSE 15 19 8 10 1029.7 1030.2 0.0
03/12:01am 6.7 2.7 6.6 99 0.0 SSE 17 20 9 11 1029.7 1030.2 0.0
03/12:00am 6.7 2.7 6.6 99 0.0 SSE 17 20 9 11 1029.7 1030.2 0.0
 
Date/Time
EST
Temp
°C
App
Temp
°C
Dew
Point
°C
Rel
Hum
%
Delta-T
°C
Wind Press
QNH
hPa
Press
MSL
hPa
Rain since
9am
mm
Dir  Spd
km/h
Gust
km/h
Spd
kts
Gust
kts
02/11:30pm 6.6 2.9 6.2 97 0.2 SSE 15 20 8 11 1029.8 1030.3 0.0
02/11:00pm 7.0 2.9 6.3 95 0.3 S 17 22 9 12 1030.0 1030.5 0.0
02/10:30pm 7.1 3.0 6.4 95 0.3 SSE 17 20 9 11 1029.8 1030.3 0.0
02/10:00pm 6.5 2.8 6.1 97 0.2 SSE 15 20 8 11 1029.8 1030.3 0.0
02/09:30pm 6.3 3.3 6.0 98 0.1 S 11 15 6 8 1029.9 1030.4 0.0
02/09:00pm 6.1 3.4 5.8 98 0.1 S 9 13 5 7 1029.9 1030.4 0.0
02/08:30pm 6.2 2.7 5.6 96 0.3 S 13 15 7 8 1029.9 1030.4 0.0
02/08:00pm 6.5 3.0 5.6 94 0.4 S 13 15 7 8 1029.9 1030.4 0.0
02/07:30pm 7.1 3.7 5.9 92 0.5 S 13 17 7 9 1029.9 1030.4 0.0
02/07:00pm 7.2 3.5 6.3 94 0.4 S 15 19 8 10 1029.7 1030.2 0.0
02/06:30pm 7.0 3.7 6.4 96 0.3 S 13 17 7 9 1029.7 1030.2 0.0
02/06:00pm 6.3 2.9 5.7 96 0.3 S 13 17 7 9 1029.6 1030.1 0.0
02/05:30pm 6.8 3.7 5.6 92 0.5 S 11 15 6 8 1029.6 1030.1 0.0
02/05:00pm 8.1 4.3 5.9 86 1.0 S 15 19 8 10 1029.6 1030.1 0.0
02/04:30pm 8.8 5.4 5.9 82 1.3 S 13 22 7 12 1029.7 1030.2 0.0
02/04:00pm 8.6 5.3 6.4 86 1.0 SSE 13 17 7 9 1029.7 1030.2 0.0
02/03:30pm 9.2 5.5 6.3 82 1.4 SSE 15 20 8 11 1029.7 1030.2 0.0
02/03:00pm 9.3 6.0 6.4 82 1.4 S 13 17 7 9 1029.7 1030.2 0.0
02/02:56pm 9.5 6.2 6.4 81 1.5 S 13 17 7 9 1029.7 1030.2 0.0
02/02:31pm 9.5 5.8 6.2 80 1.5 S 15 19 8 10 1029.9 1030.4 0.0
02/02:30pm 9.8 6.2 6.9 82 1.4 S 15 19 8 10 1029.9 1030.4 0.0
02/02:00pm 9.9 6.3 6.8 81 1.5 SSE 15 19 8 10 1029.9 1030.4 0.0
02/01:30pm 10.5 6.5 6.5 76 1.9 SSE 17 24 9 13 1030.0 1030.5 0.0
02/01:06pm 9.6 6.0 6.9 83 1.3 SSW 15 20 8 11 1030.3 1030.8 0.0
02/01:00pm 9.0 5.0 6.8 86 1.0 SSW 17 20 9 11 1030.5 1031.0 0.0
02/12:53pm 8.9 4.9 6.5 85 1.1 SSW 17 22 9 12 1030.5 1031.0 0.0
02/12:33pm 9.3 4.9 6.6 83 1.3 SSE 19 22 10 12 1030.8 1031.3 0.0
02/12:30pm 9.2 5.2 6.6 84 1.2 SSE 17 22 9 12 1030.9 1031.4 0.0
02/12:00pm 8.6 4.9 6.4 86 1.0 S 15 19 8 10 1031.3 1031.8 0.0
02/11:50am 8.2 4.1 6.3 88 0.9 S 17 22 9 12 1031.4 1031.9 0.0
02/11:46am 8.2 4.2 6.5 89 0.8 S 17 22 9 12 1031.5 1032.0 0.0
02/11:30am 8.0 4.4 6.6 91 0.7 SSE 15 19 8 10 1031.7 1032.2 0.0
02/11:00am 8.8 5.3 7.3 90 0.7 SSE 15 22 8 12 1031.7 1032.2 0.0
02/10:30am 7.2 3.6 6.9 98 0.1 S 15 22 8 12 1031.7 1032.2 0.0
02/10:00am 6.4 2.3 6.3 99 0.0 S 17 20 9 11 1031.7 1032.2 0.0
02/09:32am 6.3 2.6 6.2 99 0.0 S 15 20 8 11 1031.6 1032.1 0.0
02/09:30am 6.5 2.4 6.4 99 0.0 S 17 20 9 11 1031.6 1032.1 0.0
02/09:02am 5.8 2.0 5.7 99 0.0 S 15 20 8 11 1031.4 1031.9 0.0
02/09:00am 6.0 2.2 5.9 99 0.0 S 15 20 8 11 1031.4 1031.9 0.8
02/08:47am 5.8 2.0 5.7 99 0.0 SSW 15 19 8 10 1031.4 1031.9 0.8
02/08:30am 5.7 2.2 5.6 99 0.0 SSW 13 15 7 8 1031.4 1031.9 0.8
02/08:15am 6.0 2.6 5.9 99 0.0 SSW 13 17 7 9 1031.5 1032.0 0.8
02/08:04am 6.0 3.0 5.9 99 0.0 SSW 11 15 6 8 1031.5 1032.0 0.8
02/08:00am 6.0 3.0 5.9 99 0.0 SSW 11 15 6 8 1031.6 1032.1 0.8
02/07:52am 6.0 3.0 5.9 99 0.0 SSW 11 15 6 8 1031.6 1032.1 0.8
02/07:30am 6.0 2.2 5.9 99 0.0 SSW 15 17 8 9 1031.5 1032.0 0.8
02/07:00am 6.0 3.0 5.9 99 0.0 SSW 11 15 6 8 1031.2 1031.7 0.8
02/06:55am 6.1 3.1 6.0 99 0.0 SSW 11 15 6 8 1031.2 1031.7 0.8
02/06:30am 5.7 3.0 5.6 99 0.0 SSW 9 11 5 6 1031.1 1031.6 0.8
02/06:27am 5.6 2.9 5.5 99 0.0 S 9 11 5 6 1031.1 1031.6 0.8
02/06:14am 5.9 2.9 5.8 99 0.0 S 11 13 6 7 1031.0 1031.5 0.8
02/06:00am 6.1 3.1 6.0 99 0.0 S 11 13 6 7 1031.0 1031.5 0.8
02/05:49am 6.2 2.8 6.1 99 0.0 S 13 17 7 9 1030.9 1031.4 0.8
02/05:30am 6.0 3.0 5.9 99 0.0 S 11 15 6 8 1030.9 1031.4 0.8
02/05:06am 6.3 3.3 6.2 99 0.0 S 11 15 6 8 1030.9 1031.4 0.8
02/05:00am 6.3 3.3 6.2 99 0.0 S 11 17 6 9 1030.9 1031.4 0.8
02/04:30am 6.3 2.6 6.2 99 0.0 S 15 19 8 10 1031.0 1031.5 0.8
02/04:00am 6.4 3.1 6.3 99 0.0 S 13 19 7 10 1031.1 1031.6 0.8
02/03:49am 6.5 3.2 6.4 99 0.0 S 13 17 7 9 1031.1 1031.6 0.8
02/03:30am 6.7 3.4 6.6 99 0.0 S 13 17 7 9 1031.2 1031.7 0.8
02/03:00am 6.7 3.8 6.6 99 0.0 SSE 11 13 6 7 1031.4 1031.9 0.6
02/02:30am 6.6 3.3 6.5 99 0.0 S 13 15 7 8 1031.5 1032.0 0.4
02/02:00am 6.6 4.5 6.5 99 0.0 S 7 13 4 7 1031.4 1031.9 0.4
02/01:30am 5.7 4.7 5.6 99 0.0 CALM 0 0 0 0 1031.5 1032.0 0.2
02/01:00am 5.4 4.3 5.3 99 0.0 CALM 0 0 0 0 1031.6 1032.1 0.0
02/12:30am 5.4 3.6 5.3 99 0.0 S 4 6 2 3 1031.6 1032.1 0.0
02/12:23am 5.4 3.2 5.3 99 0.0 S 6 7 3 4 1031.6 1032.1 0.0
02/12:17am 5.6 3.4 5.5 99 0.0 S 6 7 3 4 1031.6 1032.1 0.0
02/12:00am 5.7 3.6 5.6 99 0.0 SSW 6 7 3 4 1031.7 1032.2 0.0
 
Date/Time
EST
Temp
°C
App
Temp
°C
Dew
Point
°C
Rel
Hum
%
Delta-T
°C
Wind Press
QNH
hPa
Press
MSL
hPa
Rain since
9am
mm
Dir  Spd
km/h
Gust
km/h
Spd
kts
Gust
kts
01/11:30pm 5.6 2.9 5.5 99 0.0 SSW 9 9 5 5 1031.9 1032.4 0.0
01/11:00pm 5.8 3.1 5.7 99 0.0 S 9 11 5 6 1031.8 1032.3 0.0
01/10:30pm 5.6 2.1 5.5 99 0.0 S 13 17 7 9 1031.8 1032.3 0.0
01/10:20pm 5.4 1.9 5.3 99 0.0 S 13 17 7 9 1031.8 1032.3 0.0
01/10:00pm 5.1 1.5 5.0 99 0.0 S 13 17 7 9 1031.8 1032.3 0.0
01/09:30pm 4.9 1.3 4.8 99 0.0 S 13 15 7 8 1031.8 1032.3 0.0
01/09:16pm 4.7 1.0 4.6 99 0.0 S 13 13 7 7 1031.8 1032.3 0.0
01/09:00pm 5.2 1.6 5.1 99 0.0 S 13 15 7 8 1031.7 1032.2 0.0
01/08:50pm 5.3 1.7 5.2 99 0.0 S 13 15 7 8 1031.7 1032.2 0.0
01/08:30pm 4.5 1.1 3.9 96 0.3 SSW 11 13 6 7 1031.6 1032.1 0.0
01/08:00pm 5.7 2.8 4.7 93 0.4 S 9 11 5 6 1031.5 1032.0 0.0
01/07:30pm 6.5 3.6 4.8 89 0.8 SSE 9 11 5 6 1031.6 1032.1 0.0
01/07:00pm 7.3 4.2 5.4 88 0.8 S 11 13 6 7 1031.4 1031.9 0.0
01/06:30pm 7.9 3.6 5.4 84 1.1 SSW 17 20 9 11 1031.3 1031.8 0.0
01/06:00pm 8.5 4.8 4.5 76 1.8 S 13 19 7 10 1031.2 1031.7 0.0
01/05:30pm 8.7 4.9 4.1 73 2.0 SSE 13 19 7 10 1031.0 1031.5 0.0
01/05:00pm 8.9 5.8 3.7 70 2.3 SSE 9 13 5 7 1031.0 1031.5 0.0
01/04:30pm 9.1 5.6 3.5 68 2.5 S 11 15 6 8 1030.9 1031.4 0.0
01/04:00pm 9.2 5.4 3.8 69 2.4 SSE 13 20 7 11 1031.0 1031.5 0.0
01/03:30pm 9.0 4.5 4.4 73 2.1 S 17 20 9 11 1031.1 1031.6 0.0
01/03:00pm 9.5 5.3 5.5 76 1.8 SSE 17 20 9 11 1031.0 1031.5 0.0
01/02:30pm 9.7 6.5 5.3 74 2.0 S 11 15 6 8 1031.0 1031.5 0.0
01/02:00pm 8.9 4.3 5.6 80 1.5 S 19 24 10 13 1031.3 1031.8 0.0
01/01:30pm 9.6 5.6 4.8 72 2.2 SSE 15 20 8 11 1031.5 1032.0 0.0
01/01:00pm 9.5 4.9 3.9 68 2.5 SSE 17 24 9 13 1031.6 1032.1 0.0
01/12:30pm 9.5 4.6 4.3 70 2.3 SSE 19 24 10 13 1031.7 1032.2 0.0
01/12:00pm 9.3 4.4 4.1 70 2.3 SSE 19 24 10 13 1032.0 1032.5 0.0
01/11:30am 9.2 4.8 4.6 73 2.1 SSE 17 20 9 11 1031.9 1032.4 0.0
01/11:00am 9.2 4.7 4.2 71 2.2 SSE 17 22 9 12 1032.0 1032.5 0.0
01/10:30am 9.0 4.5 4.2 72 2.1 SSE 17 24 9 13 1032.1 1032.6 0.0
01/10:00am 8.6 4.9 4.2 74 1.9 SSE 13 17 7 9 1032.1 1032.6 0.0
01/09:30am 8.4 4.6 4.0 74 1.9 SSE 13 17 7 9 1032.0 1032.5 0.0
01/09:00am 8.3 3.3 3.6 72 2.0 SSE 19 28 10 15 1031.8 1032.3 0.8
01/08:30am 8.0 2.8 3.7 74 1.9 SSE 20 28 11 15 1031.7 1032.2 0.8
01/08:00am 7.8 3.3 4.0 77 1.7 SSE 17 20 9 11 1031.5 1032.0 0.8
01/07:30am 8.0 3.5 4.0 76 1.8 SSE 17 24 9 13 1031.2 1031.6 0.8
01/07:00am 7.9 3.4 4.1 77 1.7 SSE 17 24 9 13 1030.9 1031.3 0.6
01/06:30am 7.8 3.3 4.0 77 1.7 SSE 17 20 9 11 1030.6 1031.0 0.6
01/06:00am 7.7 4.0 4.5 80 1.4 SSE 13 19 7 10 1030.4 1030.8 0.6
01/05:30am 7.6 3.9 4.6 81 1.3 SSE 13 17 7 9 1030.3 1030.7 0.6
01/05:00am 7.5 4.3 5.1 85 1.1 SE 11 17 6 9 1030.2 1030.6 0.6
01/04:30am 7.7 4.4 4.7 81 1.3 SSE 11 15 6 8 1030.1 1030.5 0.6
01/04:00am 8.0 3.9 4.4 78 1.6 SSE 15 26 8 14 1030.2 1030.6 0.6
01/03:30am 8.1 4.1 5.0 81 1.4 SSE 15 20 8 11 1030.1 1030.5 0.6
01/03:00am 8.0 4.3 6.3 89 0.8 SSE 15 19 8 10 1030.0 1030.4 0.6
01/02:30am 8.1 4.5 6.9 92 0.6 S 15 19 8 10 1030.1 1030.5 0.6
01/02:00am 7.9 5.1 7.0 94 0.4 S 11 13 6 7 1029.8 1030.2 0.6
01/01:30am 7.9 4.4 7.1 95 0.4 SSE 15 19 8 10 1029.6 1030.0 0.6
01/01:00am 7.9 4.5 7.8 99 0.0 S 15 20 8 11 1029.8 1030.2 0.6
01/12:30am 8.1 4.8 8.0 99 0.0 SSE 15 19 8 10 1029.8 1030.2 0.6
01/12:29am 8.1 4.8 8.0 99 0.0 SSE 15 19 8 10 1029.8 1030.2 0.6
01/12:00am 8.3 4.7 8.2 99 0.0 S 17 24 9 13 1029.9 1030.3 0.6
 
Date/Time
EST
Temp
°C
App
Temp
°C
Dew
Point
°C
Rel
Hum
%
Delta-T
°C
Wind Press
QNH
hPa
Press
MSL
hPa
Rain since
9am
mm
Dir  Spd
km/h
Gust
km/h
Spd
kts
Gust
kts
30/11:36pm 8.5 5.3 8.4 99 0.0 SSE 15 19 8 10 1029.8 1030.2 0.6
30/11:30pm 8.4 5.2 8.3 99 0.0 SSE 15 20 8 11 1029.8 1030.2 0.6
30/11:00pm 8.5 5.7 8.4 99 0.0 SSE 13 19 7 10 1029.6 1030.0 0.6
30/10:30pm 8.6 5.8 8.5 99 0.0 SSE 13 17 7 9 1029.3 1029.7 0.6
30/10:19pm 8.6 5.4 8.5 99 0.0 SE 15 19 8 10 1029.2 1029.6 0.6
30/10:00pm 8.7 5.2 8.6 99 0.0 SSE 17 22 9 12 1029.3 1029.7 0.6

Other formats

Comma delimited format used in spreadsheet applications
http://www.bom.gov.au/fwo/IDV60801/IDV60801.94829.axf

JavaScript Object Notation format (JSON) in row-major order
http://www.bom.gov.au/fwo/IDV60801/IDV60801.94829.json

Data quality

Most of these data are generated automatically and are frequently updated. Quality checks on data are not normally performed. It is possible for incorrect values to appear. Refer to information at About Latest Weather Observations and please check the disclaimer before using these data.